sensor_id;sensor_type;location;lat;lon;timestamp;P1;durP1;ratioP1;P2;durP2;ratioP2
14076;SDS011;7114;51.100;13.998;2024-02-04T00:01:30;5.30;;;0.90;;
14076;SDS011;7114;51.100;13.998;2024-02-04T00:03:58;4.37;;;0.80;;
14076;SDS011;7114;51.100;13.998;2024-02-04T00:06:24;4.50;;;0.82;;
14076;SDS011;7114;51.100;13.998;2024-02-04T00:08:51;4.75;;;0.70;;
14076;SDS011;7114;51.100;13.998;2024-02-04T00:11:17;4.40;;;0.85;;
14076;SDS011;7114;51.100;13.998;2024-02-04T00:13:43;4.50;;;0.82;;
14076;SDS011;7114;51.100;13.998;2024-02-04T00:16:09;4.90;;;0.73;;
14076;SDS011;7114;51.100;13.998;2024-02-04T00:18:36;6.03;;;1.10;;
14076;SDS011;7114;51.100;13.998;2024-02-04T00:21:03;4.80;;;0.82;;
14076;SDS011;7114;51.100;13.998;2024-02-04T00:23:30;4.35;;;0.70;;
14076;SDS011;7114;51.100;13.998;2024-02-04T00:25:56;4.40;;;0.77;;
14076;SDS011;7114;51.100;13.998;2024-02-04T00:28:23;4.80;;;1.03;;
14076;SDS011;7114;51.100;13.998;2024-02-04T00:30:49;4.60;;;0.88;;
14076;SDS011;7114;51.100;13.998;2024-02-04T00:33:17;4.97;;;0.90;;
14076;SDS011;7114;51.100;13.998;2024-02-04T00:35:44;4.50;;;0.80;;
14076;SDS011;7114;51.100;13.998;2024-02-04T00:38:11;4.53;;;0.90;;
14076;SDS011;7114;51.100;13.998;2024-02-04T00:40:37;4.30;;;0.83;;
14076;SDS011;7114;51.100;13.998;2024-02-04T00:43:04;4.88;;;1.13;;
14076;SDS011;7114;51.100;13.998;2024-02-04T00:45:30;5.53;;;0.90;;
14076;SDS011;7114;51.100;13.998;2024-02-04T00:47:56;4.38;;;0.73;;
14076;SDS011;7114;51.100;13.998;2024-02-04T00:50:23;5.35;;;1.10;;
14076;SDS011;7114;51.100;13.998;2024-02-04T00:52:49;4.30;;;0.70;;
14076;SDS011;7114;51.100;13.998;2024-02-04T00:55:19;5.10;;;0.85;;
14076;SDS011;7114;51.100;13.998;2024-02-04T00:57:45;4.03;;;0.65;;
14076;SDS011;7114;51.100;13.998;2024-02-04T01:00:12;4.22;;;0.80;;
14076;SDS011;7114;51.100;13.998;2024-02-04T01:02:39;5.03;;;1.20;;
14076;SDS011;7114;51.100;13.998;2024-02-04T01:05:05;4.60;;;1.20;;
14076;SDS011;7114;51.100;13.998;2024-02-04T01:07:32;4.80;;;1.05;;
14076;SDS011;7114;51.100;13.998;2024-02-04T01:09:59;5.13;;;0.90;;
14076;SDS011;7114;51.100;13.998;2024-02-04T01:12:26;4.95;;;1.08;;
14076;SDS011;7114;51.100;13.998;2024-02-04T01:14:52;5.80;;;1.10;;
14076;SDS011;7114;51.100;13.998;2024-02-04T01:17:19;4.80;;;0.90;;
14076;SDS011;7114;51.100;13.998;2024-02-04T01:19:45;6.88;;;1.23;;
14076;SDS011;7114;51.100;13.998;2024-02-04T01:22:11;4.35;;;0.90;;
14076;SDS011;7114;51.100;13.998;2024-02-04T01:24:38;5.10;;;1.00;;
14076;SDS011;7114;51.100;13.998;2024-02-04T01:27:04;5.60;;;1.13;;
14076;SDS011;7114;51.100;13.998;2024-02-04T01:29:32;5.40;;;1.10;;
14076;SDS011;7114;51.100;13.998;2024-02-04T01:31:58;5.20;;;1.40;;
14076;SDS011;7114;51.100;13.998;2024-02-04T01:34:24;4.93;;;1.33;;
14076;SDS011;7114;51.100;13.998;2024-02-04T01:36:50;5.47;;;1.30;;
14076;SDS011;7114;51.100;13.998;2024-02-04T01:39:16;5.28;;;1.17;;
14076;SDS011;7114;51.100;13.998;2024-02-04T01:41:43;5.07;;;1.10;;
14076;SDS011;7114;51.100;13.998;2024-02-04T01:44:10;5.00;;;1.10;;
14076;SDS011;7114;51.100;13.998;2024-02-04T01:46:38;5.75;;;1.33;;
14076;SDS011;7114;51.100;13.998;2024-02-04T01:49:04;5.05;;;1.13;;
14076;SDS011;7114;51.100;13.998;2024-02-04T01:51:30;4.75;;;1.20;;
14076;SDS011;7114;51.100;13.998;2024-02-04T01:53:57;5.60;;;1.30;;
14076;SDS011;7114;51.100;13.998;2024-02-04T01:56:22;5.00;;;1.00;;
14076;SDS011;7114;51.100;13.998;2024-02-04T01:58:48;6.10;;;1.10;;
14076;SDS011;7114;51.100;13.998;2024-02-04T02:01:15;5.43;;;1.10;;
14076;SDS011;7114;51.100;13.998;2024-02-04T02:03:43;5.20;;;1.15;;
14076;SDS011;7114;51.100;13.998;2024-02-04T02:06:09;4.82;;;1.00;;
14076;SDS011;7114;51.100;13.998;2024-02-04T02:08:36;5.05;;;1.15;;
14076;SDS011;7114;51.100;13.998;2024-02-04T02:11:02;5.50;;;1.00;;
14076;SDS011;7114;51.100;13.998;2024-02-04T02:13:32;5.88;;;1.30;;
14076;SDS011;7114;51.100;13.998;2024-02-04T02:16:01;6.63;;;1.10;;
14076;SDS011;7114;51.100;13.998;2024-02-04T02:18:37;5.38;;;1.20;;
14076;SDS011;7114;51.100;13.998;2024-02-04T02:21:11;5.78;;;1.02;;
14076;SDS011;7114;51.100;13.998;2024-02-04T02:23:45;5.10;;;1.00;;
14076;SDS011;7114;51.100;13.998;2024-02-04T02:26:16;5.07;;;1.00;;
14076;SDS011;7114;51.100;13.998;2024-02-04T02:28:42;5.43;;;1.15;;
14076;SDS011;7114;51.100;13.998;2024-02-04T02:31:09;5.10;;;1.05;;
14076;SDS011;7114;51.100;13.998;2024-02-04T02:33:35;5.03;;;1.10;;
14076;SDS011;7114;51.100;13.998;2024-02-04T02:36:02;4.87;;;0.97;;
14076;SDS011;7114;51.100;13.998;2024-02-04T02:38:33;5.10;;;1.00;;
14076;SDS011;7114;51.100;13.998;2024-02-04T02:41:04;4.90;;;0.98;;
14076;SDS011;7114;51.100;13.998;2024-02-04T02:43:34;4.78;;;0.82;;
14076;SDS011;7114;51.100;13.998;2024-02-04T02:46:00;4.60;;;0.90;;
14076;SDS011;7114;51.100;13.998;2024-02-04T02:48:27;6.17;;;1.00;;
14076;SDS011;7114;51.100;13.998;2024-02-04T02:50:53;5.35;;;1.00;;
14076;SDS011;7114;51.100;13.998;2024-02-04T02:53:20;5.35;;;1.00;;
14076;SDS011;7114;51.100;13.998;2024-02-04T02:55:46;5.75;;;1.00;;
14076;SDS011;7114;51.100;13.998;2024-02-04T02:58:12;5.47;;;0.93;;
14076;SDS011;7114;51.100;13.998;2024-02-04T03:00:41;5.70;;;1.00;;
14076;SDS011;7114;51.100;13.998;2024-02-04T03:03:07;5.40;;;1.23;;
14076;SDS011;7114;51.100;13.998;2024-02-04T03:05:33;5.80;;;1.20;;
14076;SDS011;7114;51.100;13.998;2024-02-04T03:08:00;5.18;;;1.20;;
14076;SDS011;7114;51.100;13.998;2024-02-04T03:10:26;5.30;;;1.17;;
14076;SDS011;7114;51.100;13.998;2024-02-04T03:12:52;6.00;;;1.13;;
14076;SDS011;7114;51.100;13.998;2024-02-04T03:15:18;5.22;;;1.30;;
14076;SDS011;7114;51.100;13.998;2024-02-04T03:17:46;6.47;;;1.20;;
14076;SDS011;7114;51.100;13.998;2024-02-04T03:20:12;5.85;;;1.27;;
14076;SDS011;7114;51.100;13.998;2024-02-04T03:22:39;6.28;;;1.30;;
14076;SDS011;7114;51.100;13.998;2024-02-04T03:25:05;6.27;;;1.53;;
14076;SDS011;7114;51.100;13.998;2024-02-04T03:27:32;6.53;;;1.15;;
14076;SDS011;7114;51.100;13.998;2024-02-04T03:29:58;7.35;;;1.50;;
14076;SDS011;7114;51.100;13.998;2024-02-04T03:32:24;6.05;;;1.58;;
14076;SDS011;7114;51.100;13.998;2024-02-04T03:34:52;6.68;;;1.83;;
14076;SDS011;7114;51.100;13.998;2024-02-04T03:37:18;7.20;;;1.80;;
14076;SDS011;7114;51.100;13.998;2024-02-04T03:39:44;5.85;;;1.60;;
14076;SDS011;7114;51.100;13.998;2024-02-04T03:42:11;6.97;;;1.50;;
14076;SDS011;7114;51.100;13.998;2024-02-04T03:44:37;5.82;;;1.50;;
14076;SDS011;7114;51.100;13.998;2024-02-04T03:47:03;6.07;;;1.25;;
14076;SDS011;7114;51.100;13.998;2024-02-04T03:49:30;5.97;;;1.40;;
14076;SDS011;7114;51.100;13.998;2024-02-04T03:51:57;6.50;;;1.90;;
14076;SDS011;7114;51.100;13.998;2024-02-04T03:54:24;5.63;;;1.60;;
14076;SDS011;7114;51.100;13.998;2024-02-04T03:56:50;5.90;;;1.40;;
14076;SDS011;7114;51.100;13.998;2024-02-04T03:59:16;6.50;;;1.52;;
14076;SDS011;7114;51.100;13.998;2024-02-04T04:01:46;7.87;;;2.30;;
14076;SDS011;7114;51.100;13.998;2024-02-04T04:04:13;7.60;;;1.50;;
14076;SDS011;7114;51.100;13.998;2024-02-04T04:06:39;6.55;;;1.77;;
14076;SDS011;7114;51.100;13.998;2024-02-04T04:09:07;8.13;;;1.42;;
14076;SDS011;7114;51.100;13.998;2024-02-04T04:11:34;7.32;;;1.88;;
14076;SDS011;7114;51.100;13.998;2024-02-04T04:14:00;6.30;;;1.27;;
14076;SDS011;7114;51.100;13.998;2024-02-04T04:16:26;6.93;;;1.67;;
14076;SDS011;7114;51.100;13.998;2024-02-04T04:18:53;6.95;;;1.67;;
14076;SDS011;7114;51.100;13.998;2024-02-04T04:21:19;7.35;;;1.60;;
14076;SDS011;7114;51.100;13.998;2024-02-04T04:23:46;6.53;;;1.70;;
14076;SDS011;7114;51.100;13.998;2024-02-04T04:26:13;7.33;;;1.87;;
14076;SDS011;7114;51.100;13.998;2024-02-04T04:28:39;7.65;;;1.80;;
14076;SDS011;7114;51.100;13.998;2024-02-04T04:31:06;6.50;;;1.50;;
14076;SDS011;7114;51.100;13.998;2024-02-04T04:33:32;7.15;;;1.80;;
14076;SDS011;7114;51.100;13.998;2024-02-04T04:35:58;8.55;;;1.90;;
14076;SDS011;7114;51.100;13.998;2024-02-04T04:38:25;7.47;;;1.70;;
14076;SDS011;7114;51.100;13.998;2024-02-04T04:40:51;6.28;;;1.90;;
14076;SDS011;7114;51.100;13.998;2024-02-04T04:43:18;7.03;;;2.17;;
14076;SDS011;7114;51.100;13.998;2024-02-04T04:45:45;7.13;;;2.05;;
14076;SDS011;7114;51.100;13.998;2024-02-04T04:48:11;7.20;;;2.20;;
14076;SDS011;7114;51.100;13.998;2024-02-04T04:50:37;6.77;;;2.00;;
14076;SDS011;7114;51.100;13.998;2024-02-04T04:53:03;6.85;;;2.00;;
14076;SDS011;7114;51.100;13.998;2024-02-04T04:55:30;7.68;;;2.25;;
14076;SDS011;7114;51.100;13.998;2024-02-04T04:57:56;7.05;;;2.10;;
14076;SDS011;7114;51.100;13.998;2024-02-04T05:00:23;7.25;;;2.00;;
14076;SDS011;7114;51.100;13.998;2024-02-04T05:02:50;7.53;;;1.90;;
14076;SDS011;7114;51.100;13.998;2024-02-04T05:05:16;7.43;;;1.90;;
14076;SDS011;7114;51.100;13.998;2024-02-04T05:07:42;6.80;;;1.92;;
14076;SDS011;7114;51.100;13.998;2024-02-04T05:10:08;7.37;;;1.80;;
14076;SDS011;7114;51.100;13.998;2024-02-04T05:12:34;7.38;;;1.90;;
14076;SDS011;7114;51.100;13.998;2024-02-04T05:15:01;7.72;;;1.98;;
14076;SDS011;7114;51.100;13.998;2024-02-04T05:17:29;7.47;;;1.77;;
14076;SDS011;7114;51.100;13.998;2024-02-04T05:19:57;6.85;;;1.70;;
14076;SDS011;7114;51.100;13.998;2024-02-04T05:22:23;6.50;;;1.50;;
14076;SDS011;7114;51.100;13.998;2024-02-04T05:24:49;6.95;;;1.90;;
14076;SDS011;7114;51.100;13.998;2024-02-04T05:27:15;6.70;;;1.45;;
14076;SDS011;7114;51.100;13.998;2024-02-04T05:29:41;7.00;;;1.57;;
14076;SDS011;7114;51.100;13.998;2024-02-04T05:32:08;7.00;;;1.70;;
14076;SDS011;7114;51.100;13.998;2024-02-04T05:34:36;7.15;;;1.30;;
14076;SDS011;7114;51.100;13.998;2024-02-04T05:37:02;6.70;;;1.50;;
14076;SDS011;7114;51.100;13.998;2024-02-04T05:39:29;6.15;;;1.20;;
14076;SDS011;7114;51.100;13.998;2024-02-04T05:41:55;6.60;;;1.40;;
14076;SDS011;7114;51.100;13.998;2024-02-04T05:44:21;6.03;;;1.05;;
14076;SDS011;7114;51.100;13.998;2024-02-04T05:46:48;6.15;;;1.42;;
14076;SDS011;7114;51.100;13.998;2024-02-04T05:49:14;6.40;;;1.30;;
14076;SDS011;7114;51.100;13.998;2024-02-04T05:51:41;6.28;;;1.20;;
14076;SDS011;7114;51.100;13.998;2024-02-04T05:54:09;6.03;;;1.13;;
14076;SDS011;7114;51.100;13.998;2024-02-04T05:56:35;6.40;;;1.00;;
14076;SDS011;7114;51.100;13.998;2024-02-04T05:59:01;6.68;;;1.17;;
14076;SDS011;7114;51.100;13.998;2024-02-04T06:01:28;7.63;;;1.30;;
14076;SDS011;7114;51.100;13.998;2024-02-04T06:03:54;7.47;;;1.20;;
14076;SDS011;7114;51.100;13.998;2024-02-04T06:06:20;5.87;;;1.10;;
14076;SDS011;7114;51.100;13.998;2024-02-04T06:08:48;5.57;;;1.15;;
14076;SDS011;7114;51.100;13.998;2024-02-04T06:11:14;5.95;;;1.17;;
14076;SDS011;7114;51.100;13.998;2024-02-04T06:13:41;5.60;;;1.20;;
14076;SDS011;7114;51.100;13.998;2024-02-04T06:16:08;6.07;;;1.23;;
14076;SDS011;7114;51.100;13.998;2024-02-04T06:18:37;6.40;;;1.40;;
14076;SDS011;7114;51.100;13.998;2024-02-04T06:21:03;5.95;;;1.08;;
14076;SDS011;7114;51.100;13.998;2024-02-04T06:23:29;5.97;;;1.50;;
14076;SDS011;7114;51.100;13.998;2024-02-04T06:25:57;6.45;;;1.48;;
14076;SDS011;7114;51.100;13.998;2024-02-04T06:28:23;6.28;;;1.45;;
14076;SDS011;7114;51.100;13.998;2024-02-04T06:30:50;6.17;;;1.33;;
14076;SDS011;7114;51.100;13.998;2024-02-04T06:33:16;6.47;;;1.33;;
14076;SDS011;7114;51.100;13.998;2024-02-04T06:35:42;6.30;;;1.60;;
14076;SDS011;7114;51.100;13.998;2024-02-04T06:38:09;6.07;;;1.52;;
14076;SDS011;7114;51.100;13.998;2024-02-04T06:40:35;7.55;;;1.60;;
14076;SDS011;7114;51.100;13.998;2024-02-04T06:43:03;5.30;;;1.10;;
14076;SDS011;7114;51.100;13.998;2024-02-04T06:45:29;6.53;;;1.50;;
14076;SDS011;7114;51.100;13.998;2024-02-04T06:47:55;6.03;;;1.20;;
14076;SDS011;7114;51.100;13.998;2024-02-04T06:50:21;7.25;;;1.67;;
14076;SDS011;7114;51.100;13.998;2024-02-04T06:52:48;6.07;;;1.40;;
14076;SDS011;7114;51.100;13.998;2024-02-04T06:55:14;6.17;;;1.30;;
14076;SDS011;7114;51.100;13.998;2024-02-04T06:57:40;6.28;;;1.17;;
14076;SDS011;7114;51.100;13.998;2024-02-04T07:00:08;5.80;;;1.27;;
14076;SDS011;7114;51.100;13.998;2024-02-04T07:02:36;6.32;;;1.05;;
14076;SDS011;7114;51.100;13.998;2024-02-04T07:05:02;5.90;;;1.38;;
14076;SDS011;7114;51.100;13.998;2024-02-04T07:07:29;5.17;;;0.90;;
14076;SDS011;7114;51.100;13.998;2024-02-04T07:09:55;6.60;;;1.40;;
14076;SDS011;7114;51.100;13.998;2024-02-04T07:12:22;6.25;;;1.40;;
14076;SDS011;7114;51.100;13.998;2024-02-04T07:14:48;5.68;;;1.10;;
14076;SDS011;7114;51.100;13.998;2024-02-04T07:17:15;6.20;;;1.20;;
14076;SDS011;7114;51.100;13.998;2024-02-04T07:19:42;5.83;;;1.30;;
14076;SDS011;7114;51.100;13.998;2024-02-04T07:22:08;6.13;;;1.40;;
14076;SDS011;7114;51.100;13.998;2024-02-04T07:24:34;4.93;;;1.00;;
14076;SDS011;7114;51.100;13.998;2024-02-04T07:27:01;5.82;;;1.05;;
14076;SDS011;7114;51.100;13.998;2024-02-04T07:29:27;5.20;;;1.20;;
14076;SDS011;7114;51.100;13.998;2024-02-04T07:31:53;6.10;;;1.10;;
14076;SDS011;7114;51.100;13.998;2024-02-04T07:34:21;5.80;;;1.20;;
14076;SDS011;7114;51.100;13.998;2024-02-04T07:36:47;6.35;;;1.35;;
14076;SDS011;7114;51.100;13.998;2024-02-04T07:39:13;5.50;;;1.08;;
14076;SDS011;7114;51.100;13.998;2024-02-04T07:41:40;5.00;;;1.00;;
14076;SDS011;7114;51.100;13.998;2024-02-04T07:44:06;5.07;;;1.00;;
14076;SDS011;7114;51.100;13.998;2024-02-04T07:46:32;5.25;;;1.00;;
14076;SDS011;7114;51.100;13.998;2024-02-04T07:48:58;5.47;;;0.88;;
14076;SDS011;7114;51.100;13.998;2024-02-04T07:51:26;4.90;;;0.80;;
14076;SDS011;7114;51.100;13.998;2024-02-04T07:53:52;5.93;;;1.20;;
14076;SDS011;7114;51.100;13.998;2024-02-04T07:56:18;5.70;;;0.80;;
14076;SDS011;7114;51.100;13.998;2024-02-04T07:58:45;5.35;;;0.80;;
14076;SDS011;7114;51.100;13.998;2024-02-04T08:01:11;4.93;;;0.80;;
14076;SDS011;7114;51.100;13.998;2024-02-04T08:03:37;4.95;;;0.85;;
14076;SDS011;7114;51.100;13.998;2024-02-04T08:06:04;4.85;;;1.10;;
14076;SDS011;7114;51.100;13.998;2024-02-04T08:08:32;4.20;;;0.60;;
14076;SDS011;7114;51.100;13.998;2024-02-04T08:10:58;4.80;;;0.70;;
14076;SDS011;7114;51.100;13.998;2024-02-04T08:13:24;4.55;;;0.50;;
14076;SDS011;7114;51.100;13.998;2024-02-04T08:15:52;5.40;;;0.70;;
14076;SDS011;7114;51.100;13.998;2024-02-04T08:18:18;4.07;;;0.70;;
14076;SDS011;7114;51.100;13.998;2024-02-04T08:20:44;4.97;;;0.73;;
14076;SDS011;7114;51.100;13.998;2024-02-04T08:23:11;4.65;;;0.70;;
14076;SDS011;7114;51.100;13.998;2024-02-04T08:25:38;3.88;;;0.63;;
14076;SDS011;7114;51.100;13.998;2024-02-04T08:28:05;3.67;;;0.50;;
14076;SDS011;7114;51.100;13.998;2024-02-04T08:30:31;4.00;;;0.60;;
14076;SDS011;7114;51.100;13.998;2024-02-04T08:32:57;3.33;;;0.43;;
14076;SDS011;7114;51.100;13.998;2024-02-04T08:35:23;3.17;;;0.38;;
14076;SDS011;7114;51.100;13.998;2024-02-04T08:37:50;3.92;;;0.60;;
14076;SDS011;7114;51.100;13.998;2024-02-04T08:40:16;3.63;;;0.50;;
14076;SDS011;7114;51.100;13.998;2024-02-04T08:42:43;4.47;;;1.08;;
14076;SDS011;7114;51.100;13.998;2024-02-04T08:45:10;3.37;;;0.33;;
14076;SDS011;7114;51.100;13.998;2024-02-04T08:47:36;3.15;;;0.40;;
14076;SDS011;7114;51.100;13.998;2024-02-04T08:50:03;3.08;;;0.40;;
14076;SDS011;7114;51.100;13.998;2024-02-04T08:52:29;2.38;;;0.30;;
14076;SDS011;7114;51.100;13.998;2024-02-04T08:54:55;2.95;;;0.40;;
14076;SDS011;7114;51.100;13.998;2024-02-04T08:57:23;2.93;;;0.30;;
14076;SDS011;7114;51.100;13.998;2024-02-04T08:59:51;2.67;;;0.38;;
14076;SDS011;7114;51.100;13.998;2024-02-04T09:02:17;3.42;;;0.50;;
14076;SDS011;7114;51.100;13.998;2024-02-04T09:04:44;3.40;;;0.40;;
14076;SDS011;7114;51.100;13.998;2024-02-04T09:07:10;3.67;;;0.52;;
14076;SDS011;7114;51.100;13.998;2024-02-04T09:09:37;4.20;;;0.50;;
14076;SDS011;7114;51.100;13.998;2024-02-04T09:12:03;3.67;;;0.60;;
14076;SDS011;7114;51.100;13.998;2024-02-04T09:14:30;4.10;;;0.90;;
14076;SDS011;7114;51.100;13.998;2024-02-04T09:16:57;3.85;;;0.52;;
14076;SDS011;7114;51.100;13.998;2024-02-04T09:19:24;3.42;;;0.50;;
14076;SDS011;7114;51.100;13.998;2024-02-04T09:21:50;3.30;;;0.40;;
14076;SDS011;7114;51.100;13.998;2024-02-04T09:24:16;3.90;;;0.60;;
14076;SDS011;7114;51.100;13.998;2024-02-04T09:26:42;3.72;;;0.55;;
14076;SDS011;7114;51.100;13.998;2024-02-04T09:29:09;3.47;;;0.40;;
14076;SDS011;7114;51.100;13.998;2024-02-04T09:31:35;3.47;;;0.50;;
14076;SDS011;7114;51.100;13.998;2024-02-04T09:34:03;3.10;;;0.40;;
14076;SDS011;7114;51.100;13.998;2024-02-04T09:36:29;3.22;;;0.50;;
14076;SDS011;7114;51.100;13.998;2024-02-04T09:38:55;3.47;;;0.60;;
14076;SDS011;7114;51.100;13.998;2024-02-04T09:41:21;3.13;;;0.30;;
14076;SDS011;7114;51.100;13.998;2024-02-04T09:43:50;2.88;;;0.40;;
14076;SDS011;7114;51.100;13.998;2024-02-04T09:46:16;3.70;;;0.40;;
14076;SDS011;7114;51.100;13.998;2024-02-04T09:48:43;3.35;;;0.40;;
14076;SDS011;7114;51.100;13.998;2024-02-04T09:51:12;4.15;;;0.60;;
14076;SDS011;7114;51.100;13.998;2024-02-04T09:53:41;3.83;;;0.60;;
14076;SDS011;7114;51.100;13.998;2024-02-04T09:56:09;4.25;;;0.68;;
14076;SDS011;7114;51.100;13.998;2024-02-04T09:58:37;4.00;;;0.60;;
14076;SDS011;7114;51.100;13.998;2024-02-04T10:01:04;3.70;;;0.50;;
14076;SDS011;7114;51.100;13.998;2024-02-04T10:03:33;4.30;;;0.52;;
14076;SDS011;7114;51.100;13.998;2024-02-04T10:05:59;4.07;;;0.60;;
14076;SDS011;7114;51.100;13.998;2024-02-04T10:08:27;4.18;;;0.80;;
14076;SDS011;7114;51.100;13.998;2024-02-04T10:10:53;4.20;;;0.70;;
14076;SDS011;7114;51.100;13.998;2024-02-04T10:13:20;4.70;;;0.80;;
14076;SDS011;7114;51.100;13.998;2024-02-04T10:15:47;5.35;;;0.60;;
14076;SDS011;7114;51.100;13.998;2024-02-04T10:18:13;4.38;;;0.88;;
14076;SDS011;7114;51.100;13.998;2024-02-04T10:20:40;4.53;;;0.75;;
14076;SDS011;7114;51.100;13.998;2024-02-04T10:23:06;5.20;;;0.70;;
14076;SDS011;7114;51.100;13.998;2024-02-04T10:25:33;5.32;;;0.95;;
14076;SDS011;7114;51.100;13.998;2024-02-04T10:28:00;11.32;;;3.67;;
14076;SDS011;7114;51.100;13.998;2024-02-04T10:30:26;17.42;;;8.77;;
14076;SDS011;7114;51.100;13.998;2024-02-04T10:32:53;22.85;;;11.25;;
14076;SDS011;7114;51.100;13.998;2024-02-04T10:35:20;25.73;;;12.77;;
14076;SDS011;7114;51.100;13.998;2024-02-04T10:37:48;23.38;;;13.32;;
14076;SDS011;7114;51.100;13.998;2024-02-04T10:40:14;26.55;;;12.40;;
14076;SDS011;7114;51.100;13.998;2024-02-04T10:42:42;20.98;;;10.70;;
14076;SDS011;7114;51.100;13.998;2024-02-04T10:45:09;29.20;;;13.02;;
14076;SDS011;7114;51.100;13.998;2024-02-04T10:47:37;22.07;;;11.47;;
14076;SDS011;7114;51.100;13.998;2024-02-04T10:50:04;20.52;;;11.43;;
14076;SDS011;7114;51.100;13.998;2024-02-04T10:52:32;26.25;;;10.98;;
14076;SDS011;7114;51.100;13.998;2024-02-04T10:55:02;21.50;;;10.90;;
14076;SDS011;7114;51.100;13.998;2024-02-04T10:57:30;25.05;;;10.40;;
14076;SDS011;7114;51.100;13.998;2024-02-04T10:59:58;21.73;;;11.27;;
14076;SDS011;7114;51.100;13.998;2024-02-04T11:02:25;18.98;;;8.90;;
14076;SDS011;7114;51.100;13.998;2024-02-04T11:04:52;15.75;;;7.97;;
14076;SDS011;7114;51.100;13.998;2024-02-04T11:07:19;9.35;;;3.65;;
14076;SDS011;7114;51.100;13.998;2024-02-04T11:09:46;19.42;;;9.40;;
14076;SDS011;7114;51.100;13.998;2024-02-04T11:12:14;13.93;;;5.80;;
14076;SDS011;7114;51.100;13.998;2024-02-04T11:14:42;16.00;;;5.93;;
14076;SDS011;7114;51.100;13.998;2024-02-04T11:17:24;20.08;;;9.88;;
14076;SDS011;7114;51.100;13.998;2024-02-04T11:20:03;19.65;;;8.68;;
14076;SDS011;7114;51.100;13.998;2024-02-04T11:22:46;17.50;;;8.00;;
14076;SDS011;7114;51.100;13.998;2024-02-04T11:25:30;14.50;;;6.23;;
14076;SDS011;7114;51.100;13.998;2024-02-04T11:28:08;13.13;;;5.45;;
14076;SDS011;7114;51.100;13.998;2024-02-04T11:30:34;11.75;;;4.95;;
14076;SDS011;7114;51.100;13.998;2024-02-04T11:33:03;9.98;;;4.03;;
14076;SDS011;7114;51.100;13.998;2024-02-04T11:35:29;7.28;;;1.80;;
14076;SDS011;7114;51.100;13.998;2024-02-04T11:37:56;8.23;;;2.67;;
14076;SDS011;7114;51.100;13.998;2024-02-04T11:40:22;14.95;;;4.95;;
14076;SDS011;7114;51.100;13.998;2024-02-04T11:42:49;13.40;;;5.45;;
14076;SDS011;7114;51.100;13.998;2024-02-04T11:45:15;13.52;;;3.40;;
14076;SDS011;7114;51.100;13.998;2024-02-04T11:47:42;11.80;;;3.30;;
14076;SDS011;7114;51.100;13.998;2024-02-04T11:50:10;10.80;;;3.33;;
14076;SDS011;7114;51.100;13.998;2024-02-04T11:52:36;7.57;;;1.90;;
14076;SDS011;7114;51.100;13.998;2024-02-04T11:55:03;10.75;;;2.53;;
14076;SDS011;7114;51.100;13.998;2024-02-04T11:57:32;9.65;;;1.83;;
14076;SDS011;7114;51.100;13.998;2024-02-04T11:59:58;11.55;;;1.67;;
14076;SDS011;7114;51.100;13.998;2024-02-04T12:02:26;6.27;;;1.50;;
14076;SDS011;7114;51.100;13.998;2024-02-04T12:04:54;5.90;;;1.40;;
14076;SDS011;7114;51.100;13.998;2024-02-04T12:07:21;6.38;;;1.50;;
14076;SDS011;7114;51.100;13.998;2024-02-04T12:09:48;5.95;;;1.10;;
14076;SDS011;7114;51.100;13.998;2024-02-04T12:12:15;5.90;;;1.30;;
14076;SDS011;7114;51.100;13.998;2024-02-04T12:14:41;6.07;;;1.40;;
14076;SDS011;7114;51.100;13.998;2024-02-04T12:17:08;5.90;;;1.23;;
14076;SDS011;7114;51.100;13.998;2024-02-04T12:19:35;5.60;;;1.00;;
14076;SDS011;7114;51.100;13.998;2024-02-04T12:22:02;4.65;;;0.90;;
14076;SDS011;7114;51.100;13.998;2024-02-04T12:24:35;4.68;;;0.90;;
14076;SDS011;7114;51.100;13.998;2024-02-04T12:27:02;5.40;;;0.97;;
14076;SDS011;7114;51.100;13.998;2024-02-04T12:29:29;5.65;;;1.05;;
14076;SDS011;7114;51.100;13.998;2024-02-04T12:31:58;7.15;;;1.13;;
14076;SDS011;7114;51.100;13.998;2024-02-04T12:34:25;7.40;;;1.17;;
14076;SDS011;7114;51.100;13.998;2024-02-04T12:36:56;7.10;;;1.40;;
14076;SDS011;7114;51.100;13.998;2024-02-04T12:39:23;8.40;;;2.70;;
14076;SDS011;7114;51.100;13.998;2024-02-04T12:41:51;5.60;;;1.20;;
14076;SDS011;7114;51.100;13.998;2024-02-04T12:44:18;7.97;;;1.38;;
14076;SDS011;7114;51.100;13.998;2024-02-04T12:46:45;6.85;;;1.50;;
14076;SDS011;7114;51.100;13.998;2024-02-04T12:49:16;6.18;;;1.67;;
14076;SDS011;7114;51.100;13.998;2024-02-04T12:51:44;5.90;;;1.30;;
14076;SDS011;7114;51.100;13.998;2024-02-04T12:54:10;6.07;;;1.33;;
14076;SDS011;7114;51.100;13.998;2024-02-04T12:56:41;6.20;;;1.52;;
14076;SDS011;7114;51.100;13.998;2024-02-04T12:59:10;5.88;;;1.20;;
14076;SDS011;7114;51.100;13.998;2024-02-04T13:01:36;5.75;;;1.60;;
14076;SDS011;7114;51.100;13.998;2024-02-04T13:04:03;6.83;;;1.40;;
14076;SDS011;7114;51.100;13.998;2024-02-04T13:06:30;5.55;;;1.30;;
14076;SDS011;7114;51.100;13.998;2024-02-04T13:08:56;5.30;;;1.20;;
14076;SDS011;7114;51.100;13.998;2024-02-04T13:11:24;5.60;;;1.45;;
14076;SDS011;7114;51.100;13.998;2024-02-04T13:13:50;5.93;;;1.25;;
14076;SDS011;7114;51.100;13.998;2024-02-04T13:16:18;5.50;;;1.13;;
14076;SDS011;7114;51.100;13.998;2024-02-04T13:18:51;5.57;;;1.38;;
14076;SDS011;7114;51.100;13.998;2024-02-04T13:21:17;5.60;;;1.38;;
14076;SDS011;7114;51.100;13.998;2024-02-04T13:23:46;5.40;;;1.13;;
14076;SDS011;7114;51.100;13.998;2024-02-04T13:26:12;6.68;;;1.92;;
14076;SDS011;7114;51.100;13.998;2024-02-04T13:28:39;5.13;;;1.17;;
14076;SDS011;7114;51.100;13.998;2024-02-04T13:31:05;6.40;;;1.33;;
14076;SDS011;7114;51.100;13.998;2024-02-04T13:33:34;4.93;;;1.10;;
14076;SDS011;7114;51.100;13.998;2024-02-04T13:36:00;6.18;;;1.50;;
14076;SDS011;7114;51.100;13.998;2024-02-04T13:38:26;5.30;;;1.23;;
14076;SDS011;7114;51.100;13.998;2024-02-04T13:40:53;5.60;;;1.30;;
14076;SDS011;7114;51.100;13.998;2024-02-04T13:43:19;5.53;;;1.20;;
14076;SDS011;7114;51.100;13.998;2024-02-04T13:45:46;5.78;;;1.52;;
14076;SDS011;7114;51.100;13.998;2024-02-04T13:48:13;5.20;;;1.17;;
14076;SDS011;7114;51.100;13.998;2024-02-04T13:50:40;4.90;;;1.13;;
14076;SDS011;7114;51.100;13.998;2024-02-04T13:53:09;6.00;;;1.30;;
14076;SDS011;7114;51.100;13.998;2024-02-04T13:55:36;5.28;;;1.10;;
14076;SDS011;7114;51.100;13.998;2024-02-04T13:58:02;5.80;;;1.10;;
14076;SDS011;7114;51.100;13.998;2024-02-04T14:00:29;4.95;;;1.10;;
14076;SDS011;7114;51.100;13.998;2024-02-04T14:02:55;6.55;;;1.45;;
14076;SDS011;7114;51.100;13.998;2024-02-04T14:05:21;6.40;;;1.00;;
14076;SDS011;7114;51.100;13.998;2024-02-04T14:07:51;5.72;;;1.10;;
14076;SDS011;7114;51.100;13.998;2024-02-04T14:10:17;5.50;;;1.10;;
14076;SDS011;7114;51.100;13.998;2024-02-04T14:12:43;5.43;;;1.17;;
14076;SDS011;7114;51.100;13.998;2024-02-04T14:15:10;5.20;;;1.27;;
14076;SDS011;7114;51.100;13.998;2024-02-04T14:17:36;5.33;;;1.10;;
14076;SDS011;7114;51.100;13.998;2024-02-04T14:20:03;5.45;;;1.30;;
14076;SDS011;7114;51.100;13.998;2024-02-04T14:22:30;5.88;;;1.20;;
14076;SDS011;7114;51.100;13.998;2024-02-04T14:24:57;6.15;;;1.55;;
14076;SDS011;7114;51.100;13.998;2024-02-04T14:27:24;5.10;;;1.10;;
14076;SDS011;7114;51.100;13.998;2024-02-04T14:29:51;5.13;;;1.10;;
14076;SDS011;7114;51.100;13.998;2024-02-04T14:32:17;5.15;;;1.00;;
14076;SDS011;7114;51.100;13.998;2024-02-04T14:34:43;5.35;;;1.15;;
14076;SDS011;7114;51.100;13.998;2024-02-04T14:37:10;7.53;;;1.30;;
14076;SDS011;7114;51.100;13.998;2024-02-04T14:39:37;5.95;;;1.30;;
14076;SDS011;7114;51.100;13.998;2024-02-04T14:42:04;4.80;;;1.07;;
14076;SDS011;7114;51.100;13.998;2024-02-04T14:44:31;4.82;;;0.90;;